Craig, MO (64437)

7:16 AM CDT on October 22, 2014 (GMT -0500)
Brenner | Change Station
CLOSE
Current Station
Airport
Location: Falls City,
Elevation: 984 ft
Nearby Weather Stations

Elev 984 ft 40.08 °N, 95.59 °W | Updated 23 minutes ago

Mostly Cloudy
Mostly Cloudy
51 °F
Feels Like 51 °F
N
6
Wind Variable Wind from SE

Today
High -- | Low -- °F
--% Chance of Precip.
Yesterday
High -- | Low -- °F
Precip. -- in
7:39 AM 6:31 PM
Waning Crescent, 2% visible
Pressure 30.13 in
Visibility 10.0 miles
Clouds Few 8000 ft
Dew Point 45 °F
Humidity 80%
Rainfall 0.00 in
Snow Depth Not available.
UV 0 out of 12
Pollen 2.50 out of 12
Air Quality Not available.
Flu Activity No Activity
METAR KFNB 221153Z AUTO 13005KT 10SM FEW080 11/07 A3013 RMK AO2 SLP203 T01060072 10133 20106 52010

More Conditions Fewer Conditions

Pressure 30.13 in
Visibility 10.0 miles
Clouds Few 8000 ft
Dew Point 45 °F
Humidity 80%
Rainfall 0.00 in
Snow Depth Not available.
UV 0 out of 12
Pollen 2.50 out of 12
Air Quality Not available.
Flu Activity No Activity
METAR KFNB 221153Z AUTO 13005KT 10SM FEW080 11/07 A3013 RMK AO2 SLP203 T01060072 10133 20106 52010

More Conditions Fewer Conditions

10-Day Weather Forecast

Almanac

Astronomy

Oct. 22, 2014 Rise Set
Actual Time 7:39 AM CDT 6:31 PM CDT
Civil Twilight 7:11 AM CDT 6:59 PM CDT
Nautical Twilight 6:40 AM CDT 7:30 PM CDT
Astronomical Twilight 6:08 AM CDT 8:02 PM CDT
Moon 6:21 AM CDT 5:58 PM CDT
Length of Visible Light 11h 47m
Length of Day
10h 51m
Tomorrow will be 2m 27s shorter.
Waning Crescent, 2% of the Moon is Illuminated
Today
Waning Crescent
Oct 23
New
Oct 30
First Quarter
Nov 6
Full
Nov 14
Last Quarter

Today's Extremes

State Highs State Lows

Community

WunderPhotos

Upload Photos

1,763,906 photos uploaded!

Nearby

Snow Depth

Station Depth Elevation
No new snow has been reported.

Earthquake Activity

City Distance Mag. Time & Date
No recent earthquake activity has been reported nearby.
Minimum magnitude displayed is 2.5.

Coastal Water Temperatures

Place Temperature
No Stations Reporting

Nearby Weather Stations